Time;durP1;ratioP1;P1;durP2;ratioP2;P2;SDS_P1;SDS_P2;PMS_P1;PMS_P2;Temp;Humidity;BMP_temperature;BMP_pressure;BME280_temperature;BME280_humidity;BME280_pressure;Samples;Min_cycle;Max_cycle;Signal;HPM_P1;HPM_P2
2022/11/23 00:01:20;;;;;;;;;;;7.30;99.90;;;;;;5078135;28;20293;-67
2022/11/23 00:03:47;;;;;;;;;;;7.30;99.90;;;;;;5075314;28;19928;-67
2022/11/23 00:06:13;;;;;;;;;;;7.30;99.90;;;;;;5085045;28;19931;-67
2022/11/23 00:08:38;;;;;;;;;;;7.30;99.90;;;;;;5087932;28;19920;-67
2022/11/23 00:11:04;;;;;;;;;;;7.30;99.90;;;;;;5089198;28;19931;-67
2022/11/23 00:13:29;;;;;;;;;;;7.30;99.90;;;;;;5090004;28;20636;-67
2022/11/23 00:15:55;;;;;;;;;;;7.40;99.90;;;;;;5081019;28;20039;-67
2022/11/23 00:18:20;;;;;;;;;;;7.30;99.90;;;;;;5083686;28;20003;-67
2022/11/23 00:20:46;;;;;;;;;;;7.30;99.90;;;;;;5081807;28;19930;-67
2022/11/23 00:23:11;;;;;;;;;;;7.30;99.90;;;;;;5092167;28;19951;-67
2022/11/23 00:25:37;;;;;;;;;;;7.40;99.90;;;;;;5085947;28;20026;-67
2022/11/23 00:28:02;;;;;;;;;;;7.30;99.90;;;;;;5091112;28;19920;-67
2022/11/23 00:30:28;;;;;;;;;;;7.40;99.90;;;;;;5089568;28;19920;-67
2022/11/23 00:32:54;;;;;;;;;;;7.40;99.90;;;;;;5087333;28;19971;-67
2022/11/23 00:35:20;;;;;;;;;;;7.40;99.90;;;;;;5092510;28;20292;-67
2022/11/23 00:37:45;;;;;;;;;;;7.40;99.90;;;;;;5085530;28;19935;-67
2022/11/23 00:40:11;;;;;;;;;;;7.40;99.90;;;;;;5090474;28;20372;-67
2022/11/23 00:42:36;;;;;;;;;;;7.40;99.90;;;;;;5090783;28;19920;-67
2022/11/23 00:45:02;;;;;;;;;;;7.40;99.90;;;;;;5093492;28;20417;-67
2022/11/23 00:47:27;;;;;;;;;;;7.40;99.90;;;;;;5088325;28;19927;-67
2022/11/23 00:49:53;;;;;;;;;;;7.40;99.90;;;;;;5090720;28;19963;-67
2022/11/23 00:52:18;;;;;;;;;;;7.40;99.90;;;;;;5089794;28;19928;-67
2022/11/23 00:54:44;;;;;;;;;;;7.50;99.90;;;;;;5091451;28;19924;-67
2022/11/23 00:57:09;;;;;;;;;;;7.40;99.90;;;;;;5087603;28;19977;-67
2022/11/23 00:59:35;;;;;;;;;;;7.50;99.90;;;;;;5090221;28;20400;-67
2022/11/23 01:02:00;;;;;;;;;;;7.50;99.90;;;;;;5086234;28;19924;-67
2022/11/23 01:04:26;;;;;;;;;;;7.50;99.90;;;;;;5084519;28;20354;-67
2022/11/23 01:06:54;;;;;;;;;;;7.50;99.90;;;;;;5087106;28;19921;-67
2022/11/23 01:09:23;;;;;;;;;;;7.50;99.90;;;;;;5091316;28;20318;-67
2022/11/23 01:11:49;;;;;;;;;;;7.50;99.90;;;;;;5090089;28;19924;-67
2022/11/23 01:14:16;;;;;;;;;;;7.60;99.90;;;;;;5091800;28;19927;-67
2022/11/23 01:16:42;;;;;;;;;;;7.50;99.90;;;;;;5083709;28;19924;-67
2022/11/23 01:19:09;;;;;;;;;;;7.60;99.90;;;;;;5090271;28;19969;-67
2022/11/23 01:21:35;;;;;;;;;;;7.60;99.90;;;;;;5090406;28;19946;-67
2022/11/23 01:24:05;;;;;;;;;;;7.60;99.90;;;;;;5088010;28;19932;-67
2022/11/23 01:26:31;;;;;;;;;;;7.60;99.90;;;;;;5088775;28;19931;-67
2022/11/23 01:28:57;;;;;;;;;;;7.60;99.90;;;;;;5089333;28;20426;-67
2022/11/23 01:31:23;;;;;;;;;;;7.60;99.90;;;;;;5090284;28;20003;-67
2022/11/23 01:33:52;;;;;;;;;;;7.60;99.90;;;;;;5089465;28;19962;-67
2022/11/23 01:36:19;;;;;;;;;;;7.60;99.90;;;;;;5087674;28;19928;-67
2022/11/23 01:38:45;;;;;;;;;;;7.60;99.90;;;;;;5088222;28;19924;-67
2022/11/23 01:41:12;;;;;;;;;;;7.60;99.90;;;;;;5090624;28;19928;-67
2022/11/23 01:43:37;;;;;;;;;;;7.60;99.90;;;;;;5087482;28;20294;-67
2022/11/23 01:46:03;;;;;;;;;;;7.60;99.90;;;;;;5088520;28;19920;-67
2022/11/23 01:48:41;;;;;;;;;;;7.60;99.90;;;;;;5088616;28;20050;-67
2022/11/23 01:51:11;;;;;;;;;;;7.60;99.90;;;;;;5076805;28;20314;-67
2022/11/23 01:53:37;;;;;;;;;;;7.60;99.90;;;;;;5090088;28;19931;-67
2022/11/23 01:56:04;;;;;;;;;;;7.60;99.90;;;;;;5089772;28;19924;-67
2022/11/23 01:58:32;;;;;;;;;;;7.70;99.90;;;;;;5090428;28;20411;-67
2022/11/23 02:00:58;;;;;;;;;;;7.60;99.90;;;;;;5089713;28;20014;-67
2022/11/23 02:03:24;;;;;;;;;;;7.60;99.90;;;;;;5090797;28;20273;-67
2022/11/23 02:05:53;;;;;;;;;;;7.70;99.90;;;;;;5088012;28;19924;-67
2022/11/23 02:08:19;;;;;;;;;;;7.60;99.90;;;;;;5088415;28;19920;-67
2022/11/23 02:10:45;;;;;;;;;;;7.70;99.90;;;;;;5089232;28;19931;-67
2022/11/23 02:13:11;;;;;;;;;;;7.70;99.90;;;;;;5085711;28;20015;-67
2022/11/23 02:15:37;;;;;;;;;;;7.60;99.90;;;;;;5089196;28;19970;-67
2022/11/23 02:18:04;;;;;;;;;;;7.70;99.90;;;;;;5089674;28;19924;-67
2022/11/23 02:20:30;;;;;;;;;;;7.70;99.90;;;;;;5086527;28;19920;-67
2022/11/23 02:23:00;;;;;;;;;;;7.60;99.90;;;;;;5087425;28;19946;-67
2022/11/23 02:25:26;;;;;;;;;;;7.70;99.90;;;;;;5090853;28;19967;-67
2022/11/23 02:27:52;;;;;;;;;;;7.70;99.90;;;;;;5087189;28;20475;-67
2022/11/23 02:30:17;;;;;;;;;;;7.70;99.90;;;;;;5090751;28;19946;-67
2022/11/23 02:32:43;;;;;;;;;;;7.60;99.90;;;;;;5087714;28;19920;-67
2022/11/23 02:35:11;;;;;;;;;;;7.70;99.90;;;;;;5090698;28;19920;-67
2022/11/23 02:37:38;;;;;;;;;;;7.70;99.90;;;;;;5087287;28;20369;-67
2022/11/23 02:40:08;;;;;;;;;;;7.70;99.90;;;;;;5082419;28;19927;-67
2022/11/23 02:42:34;;;;;;;;;;;7.70;99.90;;;;;;5088652;28;20429;-68
2022/11/23 02:45:17;;;;;;;;;;;7.70;99.90;;;;;;5090831;28;20022;-67
2022/11/23 02:47:43;;;;;;;;;;;7.70;99.90;;;;;;5083807;28;19923;-67
2022/11/23 02:50:08;;;;;;;;;;;7.70;99.90;;;;;;5090512;28;19970;-67
2022/11/23 02:52:34;;;;;;;;;;;7.70;99.90;;;;;;5085326;28;20389;-67
2022/11/23 02:54:59;;;;;;;;;;;7.70;99.90;;;;;;5078889;28;19926;-67
2022/11/23 02:57:25;;;;;;;;;;;7.70;99.90;;;;;;5086100;28;20408;-67
2022/11/23 02:59:50;;;;;;;;;;;7.70;99.90;;;;;;5089328;28;19924;-67
2022/11/23 03:02:16;;;;;;;;;;;7.70;99.90;;;;;;5088392;28;19920;-67
2022/11/23 03:04:41;;;;;;;;;;;7.70;99.90;;;;;;5084569;28;20548;-67
2022/11/23 03:07:06;;;;;;;;;;;7.70;99.90;;;;;;5087928;28;19973;-67
2022/11/23 03:09:32;;;;;;;;;;;7.70;99.90;;;;;;5089271;28;19920;-67
2022/11/23 03:11:58;;;;;;;;;;;7.70;99.90;;;;;;5084349;28;20428;-67
2022/11/23 03:14:24;;;;;;;;;;;7.70;99.90;;;;;;5086608;28;19957;-67
2022/11/23 03:16:50;;;;;;;;;;;7.70;99.90;;;;;;5089171;28;19983;-67
2022/11/23 03:19:15;;;;;;;;;;;7.70;99.90;;;;;;5081207;28;19963;-67
2022/11/23 03:21:41;;;;;;;;;;;7.70;99.90;;;;;;5087523;28;20381;-67
2022/11/23 03:24:06;;;;;;;;;;;7.70;99.90;;;;;;5085110;28;20459;-68
2022/11/23 03:26:32;;;;;;;;;;;7.70;99.90;;;;;;5081727;28;19924;-67
2022/11/23 03:28:57;;;;;;;;;;;7.70;99.90;;;;;;5090044;28;20043;-68
2022/11/23 03:31:22;;;;;;;;;;;7.60;99.90;;;;;;5092161;28;20480;-67
2022/11/23 03:33:48;;;;;;;;;;;7.60;99.90;;;;;;5091526;28;19978;-67
2022/11/23 03:36:13;;;;;;;;;;;7.60;99.90;;;;;;5092376;28;19924;-67
2022/11/23 03:38:39;;;;;;;;;;;7.60;99.90;;;;;;5088836;28;20324;-67
2022/11/23 03:41:04;;;;;;;;;;;7.60;99.90;;;;;;5074497;28;19935;-68
2022/11/23 03:43:30;;;;;;;;;;;7.60;99.90;;;;;;5090238;28;20006;-67
2022/11/23 03:45:55;;;;;;;;;;;7.60;99.90;;;;;;5086213;28;19928;-74
2022/11/23 03:48:21;;;;;;;;;;;7.60;99.90;;;;;;5091836;28;20609;-74
2022/11/23 03:50:46;;;;;;;;;;;7.60;99.90;;;;;;5092663;28;19931;-74
2022/11/23 03:53:12;;;;;;;;;;;7.60;99.90;;;;;;5092578;28;19951;-74
2022/11/23 03:55:37;;;;;;;;;;;7.60;99.90;;;;;;5092980;28;19924;-74
2022/11/23 03:58:03;;;;;;;;;;;7.60;99.90;;;;;;5089477;28;19928;-74
2022/11/23 04:00:29;;;;;;;;;;;7.60;99.90;;;;;;5093198;28;19973;-74
2022/11/23 04:02:54;;;;;;;;;;;7.60;99.90;;;;;;5092652;28;19934;-74
2022/11/23 04:05:20;;;;;;;;;;;7.60;99.90;;;;;;5089910;28;20018;-74
2022/11/23 04:07:46;;;;;;;;;;;7.60;99.90;;;;;;5089404;28;19928;-74
2022/11/23 04:10:16;;;;;;;;;;;7.60;99.90;;;;;;5088402;28;19923;-74
2022/11/23 04:12:41;;;;;;;;;;;7.60;99.90;;;;;;5091155;28;20392;-74
2022/11/23 04:15:07;;;;;;;;;;;7.60;99.90;;;;;;5088293;28;19938;-74
2022/11/23 04:17:33;;;;;;;;;;;7.60;99.90;;;;;;5090199;28;19924;-74
2022/11/23 04:19:58;;;;;;;;;;;7.60;99.90;;;;;;5089031;28;19959;-74
2022/11/23 04:22:24;;;;;;;;;;;7.60;99.90;;;;;;5090131;28;20012;-74
2022/11/23 04:24:49;;;;;;;;;;;7.60;99.90;;;;;;5092573;28;19920;-74
2022/11/23 04:27:15;;;;;;;;;;;7.60;99.90;;;;;;5087808;28;19928;-74
2022/11/23 04:29:40;;;;;;;;;;;7.60;99.90;;;;;;5085047;28;19959;-74
2022/11/23 04:32:05;;;;;;;;;;;7.60;99.90;;;;;;5089316;28;20028;-74
2022/11/23 04:34:31;;;;;;;;;;;7.60;99.90;;;;;;5092928;28;19924;-74
2022/11/23 04:36:56;;;;;;;;;;;7.60;99.90;;;;;;5087119;28;19928;-74
2022/11/23 04:39:22;;;;;;;;;;;7.60;99.90;;;;;;5089633;28;19928;-74
2022/11/23 04:41:47;;;;;;;;;;;7.60;99.90;;;;;;5090488;28;19946;-74
2022/11/23 04:44:13;;;;;;;;;;;7.60;99.90;;;;;;5089867;28;19920;-74
2022/11/23 04:46:41;;;;;;;;;;;7.60;99.90;;;;;;5090390;28;19927;-75
2022/11/23 04:49:07;;;;;;;;;;;7.60;99.90;;;;;;5089791;28;19919;-74
2022/11/23 04:51:33;;;;;;;;;;;7.50;99.90;;;;;;5086566;28;19924;-74
2022/11/23 04:53:58;;;;;;;;;;;7.50;99.90;;;;;;5087873;28;19982;-74
2022/11/23 04:56:24;;;;;;;;;;;7.50;99.90;;;;;;5073079;28;19934;-74
2022/11/23 04:58:49;;;;;;;;;;;7.50;99.90;;;;;;5091141;28;19920;-74
2022/11/23 05:01:15;;;;;;;;;;;7.50;99.90;;;;;;5091328;28;19926;-74
2022/11/23 05:03:40;;;;;;;;;;;7.50;99.90;;;;;;5085510;28;19928;-74
2022/11/23 05:06:06;;;;;;;;;;;7.60;99.90;;;;;;5089649;28;19943;-74
2022/11/23 05:08:31;;;;;;;;;;;7.60;99.90;;;;;;5088405;28;19927;-75
2022/11/23 05:10:57;;;;;;;;;;;7.60;99.90;;;;;;5069107;28;19920;-74
2022/11/23 05:13:23;;;;;;;;;;;7.60;99.90;;;;;;5088253;28;19924;-74
2022/11/23 05:15:48;;;;;;;;;;;7.60;99.90;;;;;;5083511;28;20027;-74
2022/11/23 05:18:14;;;;;;;;;;;7.70;99.90;;;;;;5087608;28;19934;-74
2022/11/23 05:20:39;;;;;;;;;;;7.70;99.90;;;;;;5091249;28;19920;-74
2022/11/23 05:23:05;;;;;;;;;;;7.70;99.90;;;;;;5087582;28;20002;-74
2022/11/23 05:25:31;;;;;;;;;;;7.70;99.90;;;;;;5090168;28;20523;-74
2022/11/23 05:27:56;;;;;;;;;;;7.60;99.90;;;;;;5088204;28;19966;-74
2022/11/23 05:30:22;;;;;;;;;;;7.60;99.90;;;;;;5086965;28;20474;-74
2022/11/23 05:32:47;;;;;;;;;;;7.60;99.90;;;;;;5087970;28;19927;-74
2022/11/23 05:35:13;;;;;;;;;;;7.60;99.90;;;;;;5091655;28;20246;-74
2022/11/23 05:37:39;;;;;;;;;;;7.60;99.90;;;;;;5082684;28;19920;-74
2022/11/23 05:40:05;;;;;;;;;;;7.60;99.90;;;;;;5087948;28;19928;-74
2022/11/23 05:42:31;;;;;;;;;;;7.60;99.90;;;;;;5086691;28;19953;-74
2022/11/23 05:44:56;;;;;;;;;;;7.60;99.90;;;;;;5086287;28;20919;-74
2022/11/23 05:47:22;;;;;;;;;;;7.60;99.90;;;;;;5088557;28;19974;-74
2022/11/23 05:49:49;;;;;;;;;;;7.60;99.90;;;;;;5087030;28;19927;-74
2022/11/23 05:52:14;;;;;;;;;;;7.60;99.90;;;;;;5085849;28;20006;-74
2022/11/23 05:54:40;;;;;;;;;;;7.60;99.90;;;;;;5088770;28;19967;-75
2022/11/23 05:57:05;;;;;;;;;;;7.60;99.90;;;;;;5086332;28;19963;-74
2022/11/23 05:59:31;;;;;;;;;;;7.60;99.90;;;;;;5081270;28;19927;-74
2022/11/23 06:01:56;;;;;;;;;;;7.60;99.90;;;;;;5064480;28;19943;-74
2022/11/23 06:04:22;;;;;;;;;;;7.60;99.90;;;;;;5073925;28;20298;-74
2022/11/23 06:06:47;;;;;;;;;;;7.60;99.90;;;;;;5088656;28;19920;-74
2022/11/23 06:09:13;;;;;;;;;;;7.60;99.90;;;;;;5091248;28;19920;-74
2022/11/23 06:11:39;;;;;;;;;;;7.60;99.90;;;;;;5089518;28;20007;-74
2022/11/23 06:14:05;;;;;;;;;;;7.60;99.90;;;;;;5086973;28;20005;-74
2022/11/23 06:16:30;;;;;;;;;;;7.50;99.90;;;;;;5089513;28;20335;-74
2022/11/23 06:18:56;;;;;;;;;;;7.50;99.90;;;;;;5092047;28;19921;-74
2022/11/23 06:21:21;;;;;;;;;;;7.50;99.90;;;;;;5089081;28;19923;-74
2022/11/23 06:23:47;;;;;;;;;;;7.40;99.90;;;;;;5088218;28;20050;-74
2022/11/23 06:26:12;;;;;;;;;;;7.40;99.90;;;;;;5089555;28;19978;-74
2022/11/23 06:28:38;;;;;;;;;;;7.30;99.90;;;;;;5071983;28;19931;-74
2022/11/23 06:31:04;;;;;;;;;;;7.30;99.90;;;;;;5086865;28;19924;-74
2022/11/23 06:33:30;;;;;;;;;;;7.30;99.90;;;;;;5086972;28;19920;-74
2022/11/23 06:35:56;;;;;;;;;;;7.30;99.90;;;;;;5089753;28;20389;-74
2022/11/23 06:38:22;;;;;;;;;;;7.20;99.90;;;;;;5090064;28;19966;-74
2022/11/23 06:40:47;;;;;;;;;;;7.20;99.90;;;;;;5088224;28;19920;-74
2022/11/23 06:43:13;;;;;;;;;;;7.20;99.90;;;;;;5088766;28;19920;-74
2022/11/23 06:45:38;;;;;;;;;;;7.20;99.90;;;;;;5088133;28;19920;-74
2022/11/23 06:48:04;;;;;;;;;;;7.20;99.90;;;;;;5101590;28;19920;-73
2022/11/23 06:50:30;;;;;;;;;;;7.10;99.90;;;;;;5080323;28;20353;-74
2022/11/23 06:52:56;;;;;;;;;;;7.10;99.90;;;;;;5090812;28;19928;-74
2022/11/23 06:55:22;;;;;;;;;;;7.10;99.90;;;;;;5089498;28;20392;-74
2022/11/23 06:57:47;;;;;;;;;;;7.10;99.90;;;;;;5079206;28;19920;-74
2022/11/23 07:00:13;;;;;;;;;;;7.10;99.90;;;;;;5087797;28;20064;-74
2022/11/23 07:02:39;;;;;;;;;;;7.10;99.90;;;;;;5087416;28;19924;-74
2022/11/23 07:05:05;;;;;;;;;;;7.10;99.90;;;;;;5094479;28;19924;-74
2022/11/23 07:07:30;;;;;;;;;;;7.10;99.90;;;;;;5092127;28;19924;-74
2022/11/23 07:09:56;;;;;;;;;;;7.10;99.90;;;;;;5080472;28;19923;-74
2022/11/23 07:12:21;;;;;;;;;;;7.10;99.90;;;;;;5093493;28;19924;-74
2022/11/23 07:14:47;;;;;;;;;;;7.10;99.90;;;;;;5091806;28;19920;-74
2022/11/23 07:17:12;;;;;;;;;;;7.10;99.90;;;;;;5090595;28;19932;-74
2022/11/23 07:19:38;;;;;;;;;;;7.10;99.90;;;;;;5092220;28;20304;-74
2022/11/23 07:22:03;;;;;;;;;;;7.20;99.90;;;;;;5092586;28;19960;-74
2022/11/23 07:24:29;;;;;;;;;;;7.20;99.90;;;;;;5094884;28;20384;-74
2022/11/23 07:26:54;;;;;;;;;;;7.20;99.90;;;;;;5093132;28;20043;-74
2022/11/23 07:29:20;;;;;;;;;;;7.30;99.90;;;;;;5087403;28;19920;-74
2022/11/23 07:31:45;;;;;;;;;;;7.30;99.90;;;;;;5084680;28;19920;-74
2022/11/23 07:34:11;;;;;;;;;;;7.40;99.90;;;;;;5088781;28;20335;-74
2022/11/23 07:36:37;;;;;;;;;;;7.40;99.90;;;;;;5093491;28;19924;-74
2022/11/23 07:39:02;;;;;;;;;;;7.40;99.90;;;;;;5081852;28;19947;-74
2022/11/23 07:41:28;;;;;;;;;;;7.40;99.90;;;;;;5094790;28;19977;-74
2022/11/23 07:43:53;;;;;;;;;;;7.40;99.90;;;;;;5087510;28;20389;-74
2022/11/23 07:46:19;;;;;;;;;;;7.50;99.90;;;;;;5089917;28;19920;-74
2022/11/23 07:48:44;;;;;;;;;;;7.50;99.90;;;;;;5093259;28;19963;-74
2022/11/23 07:51:10;;;;;;;;;;;7.50;99.90;;;;;;5084137;28;19928;-74
2022/11/23 07:53:36;;;;;;;;;;;7.60;99.90;;;;;;5092899;28;19928;-74
2022/11/23 07:56:01;;;;;;;;;;;7.50;99.90;;;;;;5091307;28;19928;-75
2022/11/23 07:58:26;;;;;;;;;;;7.50;99.90;;;;;;5091181;28;20342;-73
2022/11/23 08:00:52;;;;;;;;;;;7.50;99.90;;;;;;5092204;28;19969;-75
2022/11/23 08:03:18;;;;;;;;;;;7.60;99.90;;;;;;5084178;28;20373;-72
2022/11/23 08:05:43;;;;;;;;;;;7.60;99.90;;;;;;5085390;28;19920;-73
2022/11/23 08:08:09;;;;;;;;;;;7.60;99.90;;;;;;5080591;28;20477;-73
2022/11/23 08:10:34;;;;;;;;;;;7.60;99.90;;;;;;5093599;28;19927;-73
2022/11/23 08:13:01;;;;;;;;;;;7.60;99.90;;;;;;5093108;28;19928;-73
2022/11/23 08:15:27;;;;;;;;;;;7.60;99.90;;;;;;5092839;28;19920;-73
2022/11/23 08:17:53;;;;;;;;;;;7.60;99.90;;;;;;5092965;28;19943;-74
2022/11/23 08:20:19;;;;;;;;;;;7.70;99.90;;;;;;5092682;28;19927;-74
2022/11/23 08:22:44;;;;;;;;;;;7.70;99.90;;;;;;5093900;28;19924;-74
2022/11/23 08:25:09;;;;;;;;;;;7.80;99.90;;;;;;5092607;28;19959;-74
2022/11/23 08:27:35;;;;;;;;;;;7.80;99.90;;;;;;5093424;28;20259;-74
2022/11/23 08:30:00;;;;;;;;;;;7.80;99.90;;;;;;5090609;28;20007;-74
2022/11/23 08:32:26;;;;;;;;;;;7.80;99.90;;;;;;5068971;28;19924;-74
2022/11/23 08:34:51;;;;;;;;;;;7.90;99.90;;;;;;5085979;28;19928;-74
2022/11/23 08:37:17;;;;;;;;;;;7.90;99.90;;;;;;5084003;28;19924;-74
2022/11/23 08:39:42;;;;;;;;;;;7.90;99.90;;;;;;5085925;28;19935;-74
2022/11/23 08:42:08;;;;;;;;;;;7.90;99.90;;;;;;5084650;28;20364;-74
2022/11/23 08:44:33;;;;;;;;;;;7.90;99.90;;;;;;5092099;28;19924;-74
2022/11/23 08:46:59;;;;;;;;;;;7.90;99.90;;;;;;5091542;28;19936;-74
2022/11/23 08:49:25;;;;;;;;;;;8.00;99.90;;;;;;5091922;28;20392;-75
2022/11/23 08:51:50;;;;;;;;;;;8.00;99.90;;;;;;5091841;28;19924;-68
2022/11/23 08:54:16;;;;;;;;;;;8.00;99.90;;;;;;5093166;28;19924;-68
2022/11/23 08:56:41;;;;;;;;;;;8.10;99.90;;;;;;5093388;28;19968;-68
2022/11/23 08:59:07;;;;;;;;;;;8.10;99.90;;;;;;5091702;28;19942;-68
2022/11/23 09:01:32;;;;;;;;;;;8.10;99.90;;;;;;5092821;28;19999;-68
2022/11/23 09:03:58;;;;;;;;;;;8.20;99.90;;;;;;5091892;28;19931;-67
2022/11/23 09:06:27;;;;;;;;;;;8.30;99.90;;;;;;5087275;28;19924;-68
2022/11/23 09:08:54;;;;;;;;;;;8.30;99.90;;;;;;5086919;28;19920;-68
2022/11/23 09:11:19;;;;;;;;;;;8.40;99.90;;;;;;5090264;28;19924;-68
2022/11/23 09:13:44;;;;;;;;;;;8.40;99.90;;;;;;5079999;28;20324;-67
2022/11/23 09:16:10;;;;;;;;;;;8.50;99.90;;;;;;5090680;28;19967;-67
2022/11/23 09:18:35;;;;;;;;;;;8.50;99.90;;;;;;5090609;28;19928;-67
2022/11/23 09:21:03;;;;;;;;;;;8.60;99.90;;;;;;5087379;28;19920;-68
2022/11/23 09:23:28;;;;;;;;;;;8.70;99.90;;;;;;5090040;28;20405;-68
2022/11/23 09:25:56;;;;;;;;;;;8.70;99.90;;;;;;5080994;28;19920;-68
2022/11/23 09:28:23;;;;;;;;;;;8.80;99.90;;;;;;5087725;28;20377;-68
2022/11/23 09:30:48;;;;;;;;;;;8.80;99.90;;;;;;5087794;28;19927;-68
2022/11/23 09:33:14;;;;;;;;;;;8.80;99.90;;;;;;5087139;28;19920;-67
2022/11/23 09:35:39;;;;;;;;;;;8.80;99.90;;;;;;5090091;28;19935;-67
2022/11/23 09:38:05;;;;;;;;;;;8.90;99.90;;;;;;5065065;28;19950;-67
2022/11/23 09:40:32;;;;;;;;;;;8.80;99.90;;;;;;5078906;28;19928;-68
2022/11/23 09:43:04;;;;;;;;;;;8.80;99.90;;;;;;5091972;28;19920;-68
2022/11/23 09:45:33;;;;;;;;;;;8.80;99.90;;;;;;5088915;28;20583;-68
2022/11/23 09:48:16;;;;;;;;;;;8.70;99.90;;;;;;5091576;28;19931;-68
2022/11/23 09:50:51;;;;;;;;;;;8.80;99.90;;;;;;5088530;28;20003;-68
2022/11/23 09:53:20;;;;;;;;;;;8.80;99.90;;;;;;5082939;28;19924;-68
2022/11/23 09:55:47;;;;;;;;;;;8.80;99.90;;;;;;5090872;28;19924;-67
2022/11/23 09:58:15;;;;;;;;;;;8.80;99.90;;;;;;5087299;28;19928;-67
2022/11/23 10:00:44;;;;;;;;;;;8.80;99.90;;;;;;5092528;28;19931;-67
2022/11/23 10:03:12;;;;;;;;;;;8.90;99.90;;;;;;5088059;28;20007;-67
2022/11/23 10:05:38;;;;;;;;;;;8.90;99.90;;;;;;5084719;28;20280;-67
2022/11/23 10:08:22;;;;;;;;;;;8.90;99.90;;;;;;5090176;22;20452;-68
2022/11/23 10:11:07;;;;;;;;;;;9.00;99.90;;;;;;5087266;28;19928;-68
2022/11/23 10:13:32;;;;;;;;;;;9.00;99.90;;;;;;5073572;28;19977;-67
2022/11/23 10:16:16;;;;;;;;;;;9.00;99.90;;;;;;5074377;28;20400;-67
2022/11/23 10:18:45;;;;;;;;;;;9.00;99.90;;;;;;5093158;28;20306;-68
2022/11/23 10:21:33;;;;;;;;;;;9.00;99.90;;;;;;5088990;28;19920;-68
2022/11/23 10:24:05;;;;;;;;;;;9.00;99.90;;;;;;5089692;28;19920;-68
2022/11/23 10:26:33;;;;;;;;;;;9.10;99.90;;;;;;5088363;28;19921;-68
2022/11/23 10:29:08;;;;;;;;;;;9.00;99.90;;;;;;5090080;28;19956;-68
2022/11/23 10:31:34;;;;;;;;;;;9.00;99.90;;;;;;5090197;28;19920;-68
2022/11/23 10:34:09;;;;;;;;;;;9.00;99.90;;;;;;5087724;28;19943;-68
2022/11/23 10:36:35;;;;;;;;;;;9.00;99.90;;;;;;5089121;28;19920;-68
2022/11/23 10:39:01;;;;;;;;;;;9.00;99.90;;;;;;5095703;28;19924;-68
2022/11/23 10:41:28;;;;;;;;;;;9.00;99.90;;;;;;5084482;28;20358;-68
2022/11/23 10:44:03;;;;;;;;;;;9.10;99.90;;;;;;5093702;28;19924;-68
2022/11/23 10:46:38;;;;;;;;;;;9.00;99.90;;;;;;5089691;28;19971;-67
2022/11/23 10:49:17;;;;;;;;;;;9.10;99.90;;;;;;5095299;28;19924;-68
2022/11/23 10:52:04;;;;;;;;;;;9.10;99.90;;;;;;5089892;28;19927;-68
2022/11/23 10:54:48;;;;;;;;;;;9.00;99.90;;;;;;5092201;28;19923;-68
2022/11/23 10:57:21;;;;;;;;;;;9.00;99.90;;;;;;5088925;28;19950;-68
2022/11/23 11:00:00;;;;;;;;;;;9.00;99.90;;;;;;5092860;28;19956;-68
2022/11/23 11:02:25;;;;;;;;;;;9.00;99.90;;;;;;5100286;28;19921;-68
2022/11/23 11:05:10;;;;;;;;;;;9.10;99.90;;;;;;5079436;28;19920;-68
2022/11/23 11:07:36;;;;;;;;;;;9.00;99.90;;;;;;5091262;28;20312;-68
2022/11/23 11:10:02;;;;;;;;;;;9.10;99.90;;;;;;5093982;28;19932;-68
2022/11/23 11:12:31;;;;;;;;;;;9.10;99.90;;;;;;5086679;28;19927;-67
2022/11/23 11:15:01;;;;;;;;;;;9.20;99.90;;;;;;5092588;28;19924;-67
2022/11/23 11:17:29;;;;;;;;;;;9.20;99.90;;;;;;5092762;28;20006;-67
2022/11/23 11:19:54;;;;;;;;;;;9.20;99.90;;;;;;5093532;28;19982;-67
2022/11/23 11:22:35;;;;;;;;;;;9.20;99.90;;;;;;5091043;28;20434;-68
2022/11/23 11:25:03;;;;;;;;;;;9.30;99.90;;;;;;5090423;28;20575;-67
2022/11/23 11:27:30;;;;;;;;;;;9.40;99.90;;;;;;5091616;28;19998;-67
2022/11/23 11:30:03;;;;;;;;;;;9.40;99.90;;;;;;5080490;28;19927;-67
2022/11/23 11:32:32;;;;;;;;;;;9.50;99.90;;;;;;5092079;28;19920;-69
2022/11/23 11:35:10;;;;;;;;;;;9.60;99.90;;;;;;5092377;28;19933;-68
2022/11/23 11:37:37;;;;;;;;;;;9.80;99.90;;;;;;5089461;28;19924;-68
2022/11/23 11:40:17;;;;;;;;;;;9.90;99.90;;;;;;5087897;28;20411;-68
2022/11/23 11:42:53;;;;;;;;;;;9.90;99.90;;;;;;5089979;28;20376;-67
2022/11/23 11:45:23;;;;;;;;;;;9.90;99.90;;;;;;5091983;28;19924;-68
2022/11/23 11:48:01;;;;;;;;;;;9.90;99.90;;;;;;5091944;28;19920;-67
2022/11/23 11:50:29;;;;;;;;;;;9.90;99.90;;;;;;5090429;28;19924;-68
2022/11/23 11:53:03;;;;;;;;;;;9.80;99.90;;;;;;5092935;28;19920;-68
2022/11/23 11:55:35;;;;;;;;;;;9.70;99.90;;;;;;5093552;28;20335;-68
2022/11/23 11:58:08;;;;;;;;;;;9.70;99.90;;;;;;5089954;28;19928;-68
2022/11/23 12:00:35;;;;;;;;;;;9.70;99.90;;;;;;5092122;28;20697;-68
2022/11/23 12:03:18;;;;;;;;;;;9.60;99.90;;;;;;5091702;28;20454;-68
2022/11/23 12:05:43;;;;;;;;;;;9.60;99.90;;;;;;5093236;28;19924;-68
2022/11/23 12:08:14;;;;;;;;;;;9.60;99.90;;;;;;5029344;28;1772326;-68
2022/11/23 12:10:48;;;;;;;;;;;9.70;99.90;;;;;;5093225;28;19972;-68
2022/11/23 12:13:16;;;;;;;;;;;9.60;99.90;;;;;;5093040;28;20262;-68
2022/11/23 12:15:45;;;;;;;;;;;9.60;99.90;;;;;;5094113;28;19924;-68
2022/11/23 12:18:16;;;;;;;;;;;9.60;99.90;;;;;;5092854;28;20014;-68
2022/11/23 12:20:45;;;;;;;;;;;9.60;99.90;;;;;;5079847;28;19924;-68
2022/11/23 12:23:20;;;;;;;;;;;9.60;99.90;;;;;;5092223;28;19927;-68
2022/11/23 12:25:48;;;;;;;;;;;9.70;99.90;;;;;;5079448;28;19969;-68
2022/11/23 12:28:17;;;;;;;;;;;9.70;99.90;;;;;;5091865;28;19920;-68
2022/11/23 12:30:51;;;;;;;;;;;9.70;99.90;;;;;;5081391;28;20729;-68
2022/11/23 12:33:34;;;;;;;;;;;9.70;99.90;;;;;;5092472;28;20385;-68
2022/11/23 12:36:19;;;;;;;;;;;9.80;99.90;;;;;;5094110;28;19931;-68
2022/11/23 12:39:08;;;;;;;;;;;9.80;99.90;;;;;;5089232;28;19953;-68
2022/11/23 12:41:52;;;;;;;;;;;9.80;99.90;;;;;;5087485;28;19978;-68
2022/11/23 12:44:20;;;;;;;;;;;9.80;99.90;;;;;;5083682;28;19920;-68
2022/11/23 12:46:52;;;;;;;;;;;9.80;99.90;;;;;;5083496;28;19924;-68
2022/11/23 12:49:32;;;;;;;;;;;9.80;99.90;;;;;;5090714;28;19920;-68
2022/11/23 12:52:03;;;;;;;;;;;9.80;99.90;;;;;;5083375;28;19926;-68
2022/11/23 12:54:34;;;;;;;;;;;9.80;99.90;;;;;;5084729;28;19920;-68
2022/11/23 12:57:13;;;;;;;;;;;9.80;99.90;;;;;;5087937;28;20016;-68
2022/11/23 12:59:48;;;;;;;;;;;9.70;99.90;;;;;;5089435;28;19931;-69
2022/11/23 13:02:35;;;;;;;;;;;9.70;99.90;;;;;;5073949;28;20399;-69
2022/11/23 13:05:10;;;;;;;;;;;9.60;99.90;;;;;;5089968;28;19943;-69
2022/11/23 13:07:47;;;;;;;;;;;9.70;99.90;;;;;;5090982;28;20343;-69
2022/11/23 13:10:32;;;;;;;;;;;9.70;99.90;;;;;;5091792;28;20072;-69
2022/11/23 13:13:15;;;;;;;;;;;9.80;99.90;;;;;;5088603;28;19931;-69
2022/11/23 13:15:41;;;;;;;;;;;9.80;99.90;;;;;;5093020;28;19924;-68
2022/11/23 13:18:15;;;;;;;;;;;9.80;99.90;;;;;;5088227;28;19927;-68
2022/11/23 13:20:48;;;;;;;;;;;9.80;99.90;;;;;;5080575;28;20281;-68
2022/11/23 13:23:14;;;;;;;;;;;9.80;99.90;;;;;;5090941;28;19983;-68
2022/11/23 13:25:39;;;;;;;;;;;9.70;99.90;;;;;;5088780;28;19958;-69
2022/11/23 13:28:23;;;;;;;;;;;9.60;99.90;;;;;;5090672;28;20378;-68
2022/11/23 13:31:09;;;;;;;;;;;9.60;99.90;;;;;;5077209;28;19920;-68
2022/11/23 13:33:37;;;;;;;;;;;9.50;99.90;;;;;;5083145;28;19921;-68
2022/11/23 13:36:03;;;;;;;;;;;9.50;99.90;;;;;;5091415;28;20384;-69
2022/11/23 13:38:35;;;;;;;;;;;9.40;99.90;;;;;;5082944;28;19928;-69
2022/11/23 13:41:01;;;;;;;;;;;9.30;99.90;;;;;;5085101;28;19921;-69
2022/11/23 13:43:28;;;;;;;;;;;9.30;99.90;;;;;;5080232;28;19924;-68
2022/11/23 13:46:12;;;;;;;;;;;9.30;99.90;;;;;;5087982;28;19931;-69
2022/11/23 13:48:44;;;;;;;;;;;9.30;99.90;;;;;;5084902;28;21583;-69
2022/11/23 13:51:10;;;;;;;;;;;9.20;99.90;;;;;;5085717;28;20904;-68
2022/11/23 13:53:37;;;;;;;;;;;9.20;99.90;;;;;;5084830;28;19981;-69
2022/11/23 13:56:15;;;;;;;;;;;9.10;99.90;;;;;;5086145;28;19935;-69
2022/11/23 13:58:48;;;;;;;;;;;9.10;99.90;;;;;;5084196;28;19932;-69
2022/11/23 14:01:34;;;;;;;;;;;9.10;99.90;;;;;;5089463;28;19931;-69
2022/11/23 14:04:18;;;;;;;;;;;9.00;99.90;;;;;;5088820;28;20369;-69
2022/11/23 14:06:46;;;;;;;;;;;8.90;99.90;;;;;;5091920;28;19924;-69
2022/11/23 14:09:14;;;;;;;;;;;8.90;99.90;;;;;;5084060;28;19999;-68
2022/11/23 14:11:57;;;;;;;;;;;8.80;99.90;;;;;;5089507;28;20007;-68
2022/11/23 14:14:25;;;;;;;;;;;8.80;99.90;;;;;;5084441;28;19931;-68
2022/11/23 14:16:53;;;;;;;;;;;8.80;99.90;;;;;;5090439;28;19932;-69
2022/11/23 14:19:41;;;;;;;;;;;8.70;99.90;;;;;;5087066;28;19921;-69
2022/11/23 14:22:26;;;;;;;;;;;8.70;99.90;;;;;;5084036;28;20364;-68
2022/11/23 14:24:54;;;;;;;;;;;8.60;99.90;;;;;;5085094;28;20369;-68
2022/11/23 14:27:26;;;;;;;;;;;8.50;99.90;;;;;;5077732;28;20000;-68
2022/11/23 14:30:15;;;;;;;;;;;8.50;99.90;;;;;;5085048;28;19928;-68
2022/11/23 14:32:51;;;;;;;;;;;8.40;99.90;;;;;;5077470;28;19962;-68
2022/11/23 14:35:19;;;;;;;;;;;8.40;99.90;;;;;;5083586;28;19928;-68
2022/11/23 14:37:56;;;;;;;;;;;8.40;99.90;;;;;;5066955;28;19991;-68